Time;durP1;ratioP1;P1;durP2;ratioP2;P2;SDS_P1;SDS_P2;PMS_P1;PMS_P2;Temp;Humidity;BMP_temperature;BMP_pressure;BME280_temperature;BME280_humidity;BME280_pressure;Samples;Min_cycle;Max_cycle;Signal;HPM_P1;HPM_P2
2021/06/05 00:00:27;;;;;;;1.27;1.17;;;;;;;11.91;81.22;100951.15;1762300;81;21667;-86
2021/06/05 00:02:54;;;;;;;4.17;1.85;;;;;;;11.87;81.42;100951.45;1756542;81;21027;-87
2021/06/05 00:05:23;;;;;;;2.58;1.87;;;;;;;11.82;81.58;100950.88;1731793;82;20996;-87
2021/06/05 00:07:50;;;;;;;2.72;1.57;;;;;;;11.79;81.89;100947.84;1731666;82;21080;-87
2021/06/05 00:10:32;;;;;;;1.75;1.37;;;;;;;11.74;82.34;100946.48;1733046;82;21024;-87
2021/06/05 00:12:59;;;;;;;3.10;2.30;;;;;;;11.67;82.49;100945.94;1732631;82;20993;-86
2021/06/05 00:15:35;;;;;;;3.35;1.87;;;;;;;11.63;82.73;100951.97;1731815;82;21071;-87
2021/06/05 00:18:01;;;;;;;2.83;1.47;;;;;;;11.62;82.93;100947.60;1731563;82;21007;-87
2021/06/05 00:20:30;;;;;;;4.92;1.30;;;;;;;11.62;83.04;100944.86;1731715;82;21099;-87
2021/06/05 00:23:00;;;;;;;1.52;1.12;;;;;;;11.60;82.98;100940.76;1759361;81;21016;-88
2021/06/05 00:25:28;;;;;;;0.80;0.80;;;;;;;11.60;83.01;100938.02;1762155;81;20984;-87
2021/06/05 00:27:55;;;;;;;1.32;1.10;;;;;;;11.57;83.20;100933.92;1762090;81;21004;-87
2021/06/05 00:30:22;;;;;;;3.35;1.37;;;;;;;11.55;83.31;100933.36;1756210;81;21419;-87
2021/06/05 00:32:49;;;;;;;3.90;1.67;;;;;;;11.53;83.43;100925.16;1733234;82;20988;-86
2021/06/05 00:35:15;;;;;;;3.30;2.33;;;;;;;11.51;83.57;100927.34;1727110;82;21072;-87
2021/06/05 00:37:43;;;;;;;1.40;1.02;;;;;;;11.49;83.53;100931.70;1715286;83;21041;-87
2021/06/05 00:40:13;;;;;;;3.40;1.80;;;;;;;11.49;83.55;100936.36;1729444;82;20989;-87
2021/06/05 00:42:40;;;;;;;1.95;1.20;;;;;;;11.48;83.69;100934.73;1744984;82;21487;-87
2021/06/05 00:45:08;;;;;;;2.22;1.40;;;;;;;11.47;83.89;100938.55;1745147;82;21005;-87
2021/06/05 00:47:35;;;;;;;4.03;1.50;;;;;;;11.43;84.45;100932.81;1744825;82;21348;-87
2021/06/05 00:50:03;;;;;;;3.95;1.82;;;;;;;11.37;84.55;100935.26;1721823;82;20999;-86
2021/06/05 00:52:29;;;;;;;1.62;1.32;;;;;;;11.31;84.60;100926.23;1716235;83;21001;-86
2021/06/05 00:54:56;;;;;;;5.30;3.22;;;;;;;11.26;84.76;100928.97;1664176;83;21001;-87
2021/06/05 00:57:23;;;;;;;1.60;1.42;;;;;;;11.19;85.00;100925.13;1688383;82;21069;-87
2021/06/05 00:59:49;;;;;;;4.40;2.45;;;;;;;11.14;85.20;100922.38;1745230;82;21546;-87
2021/06/05 01:02:18;;;;;;;4.28;1.92;;;;;;;11.10;85.39;100928.14;1745196;82;20913;-86
2021/06/05 01:04:44;;;;;;;3.98;1.90;;;;;;;11.06;85.59;100924.30;1745543;82;20969;-86
2021/06/05 01:07:25;;;;;;;1.70;1.60;;;;;;;11.02;85.78;100924.55;1706217;82;21356;-87
2021/06/05 01:09:58;;;;;;;3.40;1.32;;;;;;;10.99;86.01;100927.83;1715585;83;20969;-86
2021/06/05 01:12:58;;;;;;;3.72;1.65;;;;;;;10.93;86.24;100928.93;1715759;83;21033;-86
2021/06/05 01:15:43;;;;;;;1.55;0.85;;;;;;;10.88;86.57;100928.37;1715490;83;21988;-86
2021/06/05 01:18:13;;;;;;;2.17;1.07;;;;;;;10.82;87.09;100928.06;1715760;83;23930;-86
2021/06/05 01:21:01;;;;;;;5.30;2.05;;;;;;;10.76;87.83;100928.60;1707920;84;21160;-86
2021/06/05 01:23:48;;;;;;;6.72;2.05;;;;;;;10.73;88.29;100930.52;1709140;84;21578;-87
2021/06/05 01:26:20;;;;;;;1.22;0.95;;;;;;;10.68;88.95;100936.48;1727869;82;21490;-86
2021/06/05 01:29:01;;;;;;;1.17;1.07;;;;;;;10.62;89.98;100932.92;1737796;82;21047;-86
2021/06/05 01:31:39;;;;;;;0.93;0.75;;;;;;;10.58;90.62;100933.72;1710487;82;21045;-86
2021/06/05 01:34:06;;;;;;;6.97;1.62;;;;;;;10.53;91.03;100933.16;1704382;82;21029;-86
2021/06/05 01:36:45;;;;;;;1.47;1.05;;;;;;;10.46;91.56;100929.32;1679400;84;21025;-85
2021/06/05 01:39:22;;;;;;;4.05;0.80;;;;;;;10.42;92.15;100937.77;1715245;83;20993;-86
2021/06/05 01:41:49;;;;;;;1.52;1.05;;;;;;;10.43;92.87;100934.48;1703583;84;21445;-87
2021/06/05 01:44:16;;;;;;;0.68;0.68;;;;;;;10.43;93.01;100933.11;1657620;83;21030;-86
2021/06/05 01:46:46;;;;;;;1.20;0.95;;;;;;;10.41;93.20;100932.03;1693067;83;21068;-86
2021/06/05 01:49:13;;;;;;;2.65;1.27;;;;;;;10.41;93.71;100927.94;1744883;82;21005;-86
2021/06/05 01:51:48;;;;;;;3.22;2.25;;;;;;;10.41;94.15;100936.66;1744770;82;20901;-86
2021/06/05 01:54:20;;;;;;;2.17;1.32;;;;;;;10.39;94.65;100933.39;1705597;82;21010;-86
2021/06/05 01:56:53;;;;;;;1.20;1.10;;;;;;;10.37;95.00;100934.20;1715107;83;21004;-86
2021/06/05 01:59:21;;;;;;;1.22;1.10;;;;;;;10.37;95.49;100935.01;1702065;84;21045;-86
2021/06/05 02:01:50;;;;;;;3.20;1.87;;;;;;;10.39;95.87;100930.66;1696103;83;21069;-86
2021/06/05 02:04:16;;;;;;;1.95;0.80;;;;;;;10.40;95.95;100931.73;1719915;82;20989;-86
2021/06/05 02:06:46;;;;;;;1.95;1.07;;;;;;;10.41;95.94;100936.13;1731777;82;21052;-86
2021/06/05 02:09:17;;;;;;;0.62;0.55;;;;;;;10.44;96.13;100940.23;1745147;82;21408;-86
2021/06/05 02:11:50;;;;;;;0.80;0.72;;;;;;;10.44;96.42;100932.86;1707879;82;21853;-86
2021/06/05 02:14:25;;;;;;;3.25;1.52;;;;;;;10.46;96.67;100938.04;1744551;82;21447;-86
2021/06/05 02:16:55;;;;;;;1.30;1.10;;;;;;;10.50;96.99;100936.42;1708227;82;21352;-87
2021/06/05 02:19:28;;;;;;;4.95;1.67;;;;;;;10.56;97.39;100934.01;1745201;82;21024;-87
2021/06/05 02:22:02;;;;;;;2.45;1.65;;;;;;;10.61;97.82;100927.71;1702479;84;21058;-86
2021/06/05 02:24:33;;;;;;;2.77;0.93;;;;;;;10.71;97.89;100940.08;1715356;83;21048;-86
2021/06/05 02:27:00;;;;;;;1.87;1.30;;;;;;;10.81;97.76;100936.55;1702847;84;21001;-86
2021/06/05 02:29:32;;;;;;;4.80;2.42;;;;;;;10.89;97.86;100934.66;1726002;82;21504;-86
2021/06/05 02:31:59;;;;;;;3.47;2.77;;;;;;;10.95;97.59;100928.09;1745155;82;21037;-87
2021/06/05 02:34:28;;;;;;;7.60;2.52;;;;;;;11.01;97.15;100927.58;1718804;82;21001;-87
2021/06/05 02:36:57;;;;;;;4.90;3.47;;;;;;;11.08;97.22;100931.69;1744955;81;21005;-88
2021/06/05 02:39:25;;;;;;;3.30;2.12;;;;;;;11.14;96.83;100934.69;1695643;83;21099;-87
2021/06/05 02:41:53;;;;;;;1.80;1.70;;;;;;;11.22;96.67;100927.86;1708503;82;21471;-87
2021/06/05 02:44:26;;;;;;;3.42;1.67;;;;;;;11.31;96.48;100928.16;1707827;84;20989;-87
2021/06/05 02:46:57;;;;;;;1.67;1.27;;;;;;;11.41;96.30;100929.53;1680091;82;21025;-88
2021/06/05 02:49:29;;;;;;;2.00;1.50;;;;;;;11.48;95.96;100928.70;1708183;82;21049;-87
2021/06/05 02:52:01;;;;;;;6.12;2.22;;;;;;;11.56;95.47;100926.78;1732650;81;21069;-88
2021/06/05 02:54:30;;;;;;;3.42;1.85;;;;;;;11.67;95.05;100919.92;1737392;82;20985;-87
2021/06/05 02:56:57;;;;;;;2.67;1.45;;;;;;;11.76;94.75;100922.39;1696940;83;21096;-87
2021/06/05 02:59:25;;;;;;;2.77;1.67;;;;;;;11.85;94.45;100915.27;1678516;84;21046;-88
2021/06/05 03:01:53;;;;;;;4.42;1.95;;;;;;;11.92;94.20;100914.47;1680153;84;20998;-86
2021/06/05 03:04:20;;;;;;;2.60;1.62;;;;;;;12.01;94.01;100918.26;1709339;84;21063;-87
2021/06/05 03:06:47;;;;;;;2.40;1.98;;;;;;;12.11;93.51;100921.52;1707968;84;21060;-87
2021/06/05 03:09:16;;;;;;;1.72;1.00;;;;;;;12.20;93.16;100912.20;1715404;82;21577;-88
2021/06/05 03:11:46;;;;;;;2.25;1.62;;;;;;;12.29;92.93;100906.42;1685410;85;21014;-88
2021/06/05 03:14:13;;;;;;;2.85;1.15;;;;;;;12.38;92.53;100911.57;1679661;84;21086;-88
2021/06/05 03:16:40;;;;;;;1.45;1.05;;;;;;;12.48;92.23;100908.78;1736882;82;21069;-88
2021/06/05 03:19:09;;;;;;;1.60;1.22;;;;;;;12.56;91.85;100903.30;1737290;82;21006;-88
2021/06/05 03:21:36;;;;;;;3.47;1.32;;;;;;;12.66;91.42;100911.47;1737482;82;21005;-88
2021/06/05 03:24:06;;;;;;;1.35;1.25;;;;;;;12.77;90.83;100916.33;1736954;82;21037;-88
2021/06/05 03:26:35;;;;;;;1.62;0.78;;;;;;;12.87;90.39;100915.45;1738261;82;21008;-88
2021/06/05 03:29:04;;;;;;;4.08;1.37;;;;;;;12.97;89.91;100917.32;1709171;82;21051;-88
2021/06/05 03:31:31;;;;;;;1.57;1.02;;;;;;;13.08;89.50;100914.23;1737639;82;21009;-89
2021/06/05 03:34:00;;;;;;;1.10;0.68;;;;;;;13.19;91.02;100917.72;1690985;83;21024;-89
2021/06/05 03:36:28;;;;;;;2.08;0.88;;;;;;;13.29;91.33;100916.85;1715433;82;21134;-88
2021/06/05 03:38:57;;;;;;;0.57;0.57;;;;;;;13.39;91.66;100918.14;1701786;83;21469;-88
2021/06/05 03:41:26;;;;;;;3.92;1.25;;;;;;;13.49;91.15;100913.94;1700064;84;21481;-89
2021/06/05 03:43:52;;;;;;;4.47;1.30;;;;;;;13.61;90.46;100921.80;1758675;81;20996;-89
2021/06/05 03:46:19;;;;;;;1.07;1.02;;;;;;;13.72;90.22;100923.36;1732623;82;20930;-89
2021/06/05 03:48:47;;;;;;;1.42;0.95;;;;;;;13.83;90.30;100921.89;1760160;81;21323;-89
2021/06/05 03:51:15;;;;;;;1.60;1.45;;;;;;;13.94;90.14;100915.16;1739986;82;21375;-88
2021/06/05 03:53:42;;;;;;;2.25;1.02;;;;;;;14.06;88.96;100916.14;1740063;82;21021;-89
2021/06/05 03:56:09;;;;;;;0.80;0.80;;;;;;;14.16;87.77;100914.09;1740016;82;21787;-88
2021/06/05 03:58:41;;;;;;;0.85;0.70;;;;;;;14.25;86.76;100909.34;1740039;82;21001;-88
2021/06/05 04:01:16;;;;;;;1.50;1.40;;;;;;;14.35;86.09;100914.72;1761885;81;20981;-88
2021/06/05 04:03:43;;;;;;;0.95;0.70;;;;;;;14.44;85.38;100907.47;1731688;82;21516;-89
2021/06/05 04:06:11;;;;;;;0.93;0.93;;;;;;;14.52;84.44;100910.12;1732611;82;21471;-89
2021/06/05 04:08:40;;;;;;;0.95;0.82;;;;;;;14.58;84.44;100915.83;1762066;81;21518;-89
2021/06/05 04:11:06;;;;;;;1.75;1.02;;;;;;;14.66;83.50;100908.85;1706562;82;21008;-89
2021/06/05 04:13:35;;;;;;;2.92;1.20;;;;;;;14.75;83.15;100912.59;1700736;84;21092;-89
2021/06/05 04:16:01;;;;;;;1.55;0.80;;;;;;;14.81;82.28;100910.86;1731953;82;21000;-88
2021/06/05 04:18:31;;;;;;;0.68;0.68;;;;;;;14.88;81.83;100906.34;1703504;82;21100;-89
2021/06/05 04:20:59;;;;;;;2.62;0.95;;;;;;;14.95;81.72;100909.54;1761952;81;21016;-89
2021/06/05 04:23:26;;;;;;;1.92;1.72;;;;;;;15.03;81.71;100913.02;1731895;82;20969;-88
2021/06/05 04:25:52;;;;;;;2.92;1.07;;;;;;;15.17;81.48;100913.62;1732000;82;21004;-89
2021/06/05 04:28:20;;;;;;;1.10;0.95;;;;;;;15.36;81.12;100911.68;1728612;83;21043;-88
2021/06/05 04:30:47;;;;;;;2.35;1.00;;;;;;;15.57;80.52;100912.70;1740510;82;21076;-88
2021/06/05 04:33:17;;;;;;;1.05;0.95;;;;;;;15.81;80.33;100918.11;1762228;81;21016;-88
2021/06/05 04:35:44;;;;;;;1.75;1.00;;;;;;;16.05;79.27;100916.00;1730822;82;21560;-89
2021/06/05 04:38:10;;;;;;;0.72;0.72;;;;;;;16.28;77.81;100916.92;1717434;82;21373;-88
2021/06/05 04:40:38;;;;;;;2.98;0.80;;;;;;;16.47;77.30;100912.69;1708536;83;21014;-88
2021/06/05 04:43:04;;;;;;;1.52;0.70;;;;;;;16.61;76.00;100911.28;1708766;84;21045;-89
2021/06/05 04:45:31;;;;;;;0.75;0.75;;;;;;;16.73;75.37;100907.42;1708132;83;21044;-88
2021/06/05 04:47:58;;;;;;;1.35;1.00;;;;;;;16.82;74.97;100908.94;1736251;82;21589;-89
2021/06/05 04:50:28;;;;;;;0.68;0.60;;;;;;;16.91;73.98;100903.48;1737425;82;20999;-88
2021/06/05 04:52:56;;;;;;;2.17;0.80;;;;;;;16.98;73.60;100901.92;1737895;82;21061;-88
2021/06/05 04:55:22;;;;;;;1.50;1.37;;;;;;;17.04;73.23;100899.88;1737328;82;21493;-89
2021/06/05 04:57:51;;;;;;;1.27;1.02;;;;;;;17.17;72.15;100900.95;1737639;82;21442;-89
2021/06/05 05:00:23;;;;;;;1.75;1.25;;;;;;;17.31;71.44;100901.72;1736316;82;20966;-87
2021/06/05 05:02:50;;;;;;;0.70;0.70;;;;;;;17.46;70.37;100894.99;1713868;83;20989;-87
2021/06/05 05:05:17;;;;;;;1.72;1.10;;;;;;;17.60;69.74;100888.80;1707956;84;21424;-88
2021/06/05 05:07:48;;;;;;;1.00;0.90;;;;;;;17.74;69.70;100892.06;1707934;83;21511;-88
2021/06/05 05:10:21;;;;;;;;;;;;;;;17.84;69.05;100889.06;1723769;82;21079;-88
2021/06/05 05:12:48;;;;;;;1.23;1.03;;;;;;;18.01;68.20;100880.84;1721123;82;20498;-88
2021/06/05 05:15:15;;;;;;;1.95;0.70;;;;;;;18.19;67.42;100883.67;1707697;84;21244;-88
2021/06/05 05:17:42;;;;;;;0.47;0.47;;;;;;;18.35;66.53;100880.72;1707277;83;21036;-87
2021/06/05 05:20:12;;;;;;;0.53;0.53;;;;;;;18.51;65.37;100880.27;1707939;84;21071;-88
2021/06/05 05:22:39;;;;;;;0.78;0.62;;;;;;;18.66;65.14;100879.80;1708364;83;20919;-87
2021/06/05 05:25:07;;;;;;;1.20;0.50;;;;;;;18.80;64.02;100873.58;1713342;82;21412;-87
2021/06/05 05:27:33;;;;;;;1.22;0.72;;;;;;;18.92;63.06;100875.71;1707947;82;21032;-87
2021/06/05 05:30:06;;;;;;;0.60;0.60;;;;;;;19.05;63.46;100873.91;1737734;82;21012;-87
2021/06/05 05:32:33;;;;;;;2.15;1.00;;;;;;;19.17;62.13;100872.69;1736904;82;21633;-88
2021/06/05 05:35:00;;;;;;;1.15;0.75;;;;;;;19.32;61.42;100874.94;1737887;82;21033;-88
2021/06/05 05:37:27;;;;;;;0.93;0.70;;;;;;;19.46;61.04;100871.16;1739369;81;21434;-87
2021/06/05 05:39:56;;;;;;;0.78;0.60;;;;;;;19.56;60.25;100862.52;1753963;81;21410;-88
2021/06/05 05:42:22;;;;;;;0.45;0.42;;;;;;;19.65;59.76;100861.09;1741125;82;20993;-88
2021/06/05 05:44:49;;;;;;;1.47;1.00;;;;;;;19.76;60.13;100861.83;1754006;81;21013;-88
2021/06/05 05:47:17;;;;;;;2.05;0.75;;;;;;;19.88;58.51;100857.53;1753662;81;21072;-87
2021/06/05 05:49:44;;;;;;;1.35;1.10;;;;;;;20.00;57.81;100849.32;1755001;81;20953;-87
2021/06/05 05:52:11;;;;;;;1.02;0.70;;;;;;;20.10;57.36;100850.36;1720180;81;21539;-87
2021/06/05 05:54:37;;;;;;;0.57;0.57;;;;;;;20.22;56.90;100847.42;1742170;81;21458;-87
2021/06/05 05:57:06;;;;;;;2.92;1.02;;;;;;;20.35;57.07;100840.26;1723434;83;21172;-87
2021/06/05 05:59:32;;;;;;;0.82;0.80;;;;;;;20.52;56.81;100842.66;1711266;83;21097;-87
2021/06/05 06:01:59;;;;;;;2.17;0.80;;;;;;;20.70;56.09;100837.85;1723129;83;20992;-87
2021/06/05 06:04:26;;;;;;;0.37;0.37;;;;;;;20.87;54.85;100832.70;1711554;83;21012;-87
2021/06/05 06:06:52;;;;;;;0.62;0.47;;;;;;;21.08;54.31;100834.89;1723528;83;21048;-87
2021/06/05 06:09:19;;;;;;;1.55;1.02;;;;;;;21.30;52.99;100835.09;1734543;82;21012;-87
2021/06/05 06:11:46;;;;;;;2.55;0.75;;;;;;;21.50;51.98;100837.61;1717174;81;20913;-87
2021/06/05 06:14:15;;;;;;;1.00;0.60;;;;;;;21.59;52.47;100829.98;1731749;82;20988;-85
2021/06/05 06:16:42;;;;;;;1.05;0.53;;;;;;;21.70;51.32;100831.73;1742742;81;21018;-85
2021/06/05 06:19:12;;;;;;;0.55;0.45;;;;;;;21.86;52.16;100828.52;1726224;82;21153;-87
2021/06/05 06:21:40;;;;;;;0.72;0.50;;;;;;;21.99;52.47;100833.50;1692187;81;21083;-87
2021/06/05 06:24:08;;;;;;;1.15;0.70;;;;;;;22.11;50.73;100832.69;1729878;81;21049;-87
2021/06/05 06:26:34;;;;;;;2.30;0.47;;;;;;;22.27;49.35;100831.42;1739591;81;20991;-88
2021/06/05 06:29:08;;;;;;;1.17;0.57;;;;;;;22.30;49.83;100828.77;1718428;81;21000;-87
2021/06/05 06:31:29;;;;;;;1.40;0.82;;;;;;;22.38;50.52;100831.75;1700527;84;21028;-87
2021/06/05 06:33:56;;;;;;;0.62;0.53;;;;;;;22.45;48.88;100828.62;1711465;83;21048;-88
2021/06/05 06:36:22;;;;;;;0.82;0.72;;;;;;;22.51;47.94;100820.25;1711448;83;20995;-87
2021/06/05 06:38:49;;;;;;;1.20;0.68;;;;;;;22.52;48.45;100821.86;1687615;83;20898;-86
2021/06/05 06:41:26;;;;;;;1.02;0.70;;;;;;;22.48;47.77;100821.55;1708346;83;21514;-87
2021/06/05 06:43:53;;;;;;;2.65;0.70;;;;;;;22.39;47.14;100818.88;1711633;82;21413;-87
2021/06/05 06:46:24;;;;;;;1.05;0.60;;;;;;;22.39;47.80;100819.47;1715527;83;21041;-87
2021/06/05 06:48:55;;;;;;;1.30;0.70;;;;;;;22.52;47.28;100817.69;1715311;83;21005;-87
2021/06/05 06:51:22;;;;;;;0.87;0.63;;;;;;;22.75;46.67;100814.40;1708139;84;21005;-87
2021/06/05 06:53:49;;;;;;;0.47;0.47;;;;;;;22.88;46.04;100804.02;1708041;84;21478;-88
2021/06/05 06:56:15;;;;;;;0.40;0.40;;;;;;;22.92;46.88;100799.34;1708033;84;21060;-88
2021/06/05 06:58:43;;;;;;;1.02;0.68;;;;;;;22.96;46.18;100797.47;1715299;83;20997;-87
2021/06/05 07:01:13;;;;;;;0.55;0.40;;;;;;;23.00;46.50;100805.95;1716563;82;21013;-87
2021/06/05 07:03:40;;;;;;;0.93;0.80;;;;;;;23.07;44.92;100804.20;1717056;82;21605;-87
2021/06/05 07:06:07;;;;;;;0.70;0.70;;;;;;;23.15;46.73;100807.98;1737785;82;21045;-87
2021/06/05 07:08:36;;;;;;;0.47;0.37;;;;;;;23.26;45.63;100809.66;1736945;82;21422;-87
2021/06/05 07:11:10;;;;;;;1.20;0.90;;;;;;;23.15;45.47;100806.00;1729704;82;20989;-87
2021/06/05 07:13:38;;;;;;;0.72;0.70;;;;;;;23.10;45.26;100803.48;1736150;82;21401;-87
2021/06/05 07:16:06;;;;;;;0.55;0.40;;;;;;;23.12;45.06;100807.28;1737355;82;21009;-87
2021/06/05 07:18:35;;;;;;;1.17;0.70;;;;;;;23.14;45.54;100803.56;1683622;84;41708;-87
2021/06/05 07:21:05;;;;;;;0.70;0.70;;;;;;;23.08;45.05;100802.22;1707811;84;21020;-87
2021/06/05 07:23:32;;;;;;;0.60;0.60;;;;;;;23.01;44.87;100801.42;1707906;84;21033;-86
2021/06/05 07:26:03;;;;;;;0.62;0.40;;;;;;;22.93;45.21;100800.39;1707276;84;21550;-86
2021/06/05 07:28:34;;;;;;;0.55;0.45;;;;;;;22.89;46.13;100801.45;1707644;84;21024;-86
2021/06/05 07:31:02;;;;;;;0.70;0.37;;;;;;;22.90;46.33;100794.14;1708667;84;21024;-86
2021/06/05 07:33:28;;;;;;;0.60;0.60;;;;;;;22.93;45.29;100799.58;1708053;84;21391;-88
2021/06/05 07:35:56;;;;;;;1.00;0.47;;;;;;;22.99;44.99;100794.00;1708614;82;21414;-88
2021/06/05 07:38:23;;;;;;;1.62;0.90;;;;;;;23.04;44.83;100792.94;1719564;83;21027;-88
2021/06/05 07:40:50;;;;;;;0.78;0.50;;;;;;;23.15;45.75;100787.89;1701008;83;20924;-89
2021/06/05 07:43:19;;;;;;;0.60;0.57;;;;;;;23.33;47.03;100781.98;1724455;81;21050;-90
2021/06/05 07:45:46;;;;;;;1.62;0.70;;;;;;;23.51;46.46;100781.84;1731512;81;21027;-89
2021/06/05 07:48:14;;;;;;;0.93;0.50;;;;;;;23.67;45.68;100781.06;1706641;82;21046;-88
2021/06/05 07:50:41;;;;;;;2.72;0.82;;;;;;;23.79;43.74;100776.22;1732757;81;21237;-90
2021/06/05 07:53:07;;;;;;;0.80;0.75;;;;;;;23.83;43.75;100776.30;1761770;81;21082;-90
2021/06/05 07:55:36;;;;;;;0.57;0.55;;;;;;;23.92;43.02;100778.91;1761729;81;21493;-89
2021/06/05 07:58:03;;;;;;;0.90;0.60;;;;;;;23.93;42.35;100775.73;1762873;81;20968;-89
2021/06/05 08:00:33;;;;;;;1.10;0.70;;;;;;;23.94;43.17;100775.17;1713353;81;21427;-90
2021/06/05 08:02:59;;;;;;;0.45;0.45;;;;;;;23.97;44.06;100763.27;1731455;82;20989;-88
2021/06/05 08:05:26;;;;;;;1.42;0.75;;;;;;;24.06;43.36;100767.25;1754915;81;21398;-90
2021/06/05 08:07:53;;;;;;;0.60;0.47;;;;;;;24.13;43.73;100763.23;1742309;80;21130;-90
2021/06/05 08:10:22;;;;;;;0.88;0.57;;;;;;;24.17;44.52;100766.92;1721241;82;21016;-89
2021/06/05 08:12:50;;;;;;;1.30;1.00;;;;;;;24.10;43.12;100752.20;1731739;82;20901;-88
2021/06/05 08:15:25;;;;;;;0.65;0.65;;;;;;;24.16;42.72;100755.52;1702697;82;21059;-88
2021/06/05 08:17:51;;;;;;;1.27;0.75;;;;;;;24.24;41.83;100755.92;1757657;81;21008;-90
2021/06/05 08:20:25;;;;;;;2.30;1.30;;;;;;;24.25;42.17;100759.72;1762207;81;20992;-90
2021/06/05 08:22:53;;;;;;;0.40;0.40;;;;;;;24.29;41.58;100754.23;1731405;82;21458;-90
2021/06/05 08:25:20;;;;;;;1.00;0.60;;;;;;;24.33;41.68;100756.53;1726664;82;21004;-89
2021/06/05 08:27:47;;;;;;;0.45;0.45;;;;;;;24.41;41.63;100752.70;1722629;82;21405;-89
2021/06/05 08:30:22;;;;;;;1.65;1.50;;;;;;;24.52;41.63;100750.75;1700619;84;20983;-88
2021/06/05 08:32:48;;;;;;;1.02;0.55;;;;;;;24.60;41.27;100754.70;1700269;84;21461;-90
2021/06/05 08:35:16;;;;;;;0.55;0.55;;;;;;;24.71;41.16;100747.16;1699578;84;21059;-89
2021/06/05 08:37:43;;;;;;;0.75;0.62;;;;;;;24.74;40.60;100748.61;1690973;84;21936;-91
2021/06/05 08:40:13;;;;;;;0.30;0.30;;;;;;;24.78;40.79;100745.31;1686642;83;21054;-89
2021/06/05 08:42:48;;;;;;;0.30;0.30;;;;;;;24.87;40.47;100740.28;1711166;83;21001;-89
2021/06/05 08:45:12;;;;;;;1.05;0.75;;;;;;;25.00;40.52;100740.95;1685824;83;21001;-89
2021/06/05 08:47:38;;;;;;;1.82;1.05;;;;;;;25.05;39.54;100737.05;1737259;82;21040;-90
2021/06/05 08:50:09;;;;;;;0.70;0.62;;;;;;;25.13;40.40;100737.98;1737480;82;21450;-88
2021/06/05 08:53:02;;;;;;;0.80;0.75;;;;;;;25.17;40.32;100732.67;1737605;82;21061;-90
2021/06/05 08:55:37;;;;;;;1.60;0.75;;;;;;;25.21;39.85;100732.16;1737755;82;21050;-88
2021/06/05 08:58:19;;;;;;;0.80;0.68;;;;;;;25.35;41.08;100732.20;1738793;82;20950;-87
2021/06/05 09:00:48;;;;;;;1.37;0.80;;;;;;;25.55;39.78;100732.34;1709916;82;21116;-88
2021/06/05 09:03:21;;;;;;;0.90;0.70;;;;;;;25.62;38.14;100734.43;1732274;82;21141;-88
2021/06/05 09:06:01;;;;;;;1.17;0.80;;;;;;;25.50;37.92;100738.25;1737102;82;21016;-89
2021/06/05 09:08:29;;;;;;;0.50;0.50;;;;;;;25.44;38.81;100739.14;1717439;82;20978;-88
2021/06/05 09:11:00;;;;;;;0.93;0.53;;;;;;;25.41;39.09;100732.09;1713292;83;21535;-87
2021/06/05 09:13:26;;;;;;;0.75;0.57;;;;;;;25.43;38.29;100733.94;1683893;85;21050;-87
2021/06/05 09:16:23;;;;;;;0.60;0.60;;;;;;;25.41;38.25;100733.50;1714270;83;21546;-89
2021/06/05 09:19:10;;;;;;;0.50;0.50;;;;;;;25.42;38.58;100729.51;1684434;85;21400;-88
2021/06/05 09:21:46;;;;;;;0.40;0.40;;;;;;;25.52;38.43;100728.30;1685814;83;20993;-89
2021/06/05 09:24:45;;;;;;;2.08;1.00;;;;;;;25.53;37.36;100724.91;1684062;85;21472;-90
2021/06/05 09:27:20;;;;;;;0.95;0.45;;;;;;;25.54;39.26;100722.31;1713811;83;20986;-90
2021/06/05 09:30:02;;;;;;;0.47;0.47;;;;;;;25.62;37.22;100724.63;1679564;85;21044;-89
2021/06/05 09:32:35;;;;;;;0.68;0.60;;;;;;;25.72;36.51;100719.23;1713893;83;21009;-89
2021/06/05 09:35:13;;;;;;;1.50;1.37;;;;;;;25.83;35.33;100718.58;1706490;84;21544;-89
2021/06/05 09:37:42;;;;;;;2.27;1.07;;;;;;;25.86;37.65;100722.05;1713242;81;21120;-89
2021/06/05 09:40:32;;;;;;;11.83;7.05;;;;;;;25.73;37.76;100710.23;1741101;81;20989;-90
2021/06/05 09:43:13;;;;;;;3.40;2.47;;;;;;;25.72;37.69;100706.63;1709829;83;21065;-89
2021/06/05 09:45:49;;;;;;;1.40;0.93;;;;;;;25.75;38.71;100700.88;1752540;81;21368;-89
2021/06/05 09:48:35;;;;;;;1.00;0.65;;;;;;;25.83;37.66;100698.39;1722697;83;21005;-88
2021/06/05 09:51:31;;;;;;;2.65;2.33;;;;;;;25.95;37.37;100693.20;1734426;81;21586;-90
2021/06/05 09:54:17;;;;;;;1.32;0.50;;;;;;;25.97;37.43;100689.43;1752656;81;20996;-88
2021/06/05 09:56:48;;;;;;;1.05;0.57;;;;;;;25.87;35.20;100691.48;1712836;83;21020;-89
2021/06/05 09:59:28;;;;;;;2.52;1.02;;;;;;;25.69;35.34;100685.01;1740825;82;21044;-90
2021/06/05 10:02:02;;;;;;;1.77;1.27;;;;;;;25.56;35.53;100687.78;1747743;81;21045;-89
2021/06/05 10:04:31;;;;;;;1.15;0.60;;;;;;;25.36;36.14;100685.67;1710381;82;20998;-90
2021/06/05 10:07:00;;;;;;;0.23;0.23;;;;;;;25.25;38.18;100685.50;1725496;81;20985;-90
2021/06/05 10:09:34;;;;;;;0.37;0.30;;;;;;;25.22;37.94;100679.83;1752492;81;20997;-89
2021/06/05 10:12:11;;;;;;;0.62;0.40;;;;;;;25.15;37.30;100674.91;1720552;82;21017;-89
2021/06/05 10:14:58;;;;;;;0.78;0.60;;;;;;;25.37;37.04;100678.08;1737182;81;21075;-89
2021/06/05 10:17:53;;;;;;;2.67;0.62;;;;;;;25.48;35.74;100680.47;1737162;82;21005;-89
2021/06/05 10:20:35;;;;;;;0.90;0.55;;;;;;;25.47;35.98;100680.23;1753467;81;21055;-87
2021/06/05 10:23:01;;;;;;;0.70;0.50;;;;;;;25.34;37.28;100685.83;1740701;82;21049;-89
2021/06/05 10:25:43;;;;;;;0.75;0.72;;;;;;;25.26;35.94;100689.90;1753277;81;20985;-88
2021/06/05 10:28:21;;;;;;;1.53;0.53;;;;;;;25.14;35.92;100690.06;1734412;82;21007;-89
2021/06/05 10:31:10;;;;;;;1.77;0.70;;;;;;;24.88;36.37;100677.63;1711853;83;21497;-89
2021/06/05 10:34:02;;;;;;;1.45;0.95;;;;;;;24.70;37.25;100684.86;1711628;83;21069;-88
2021/06/05 10:36:41;;;;;;;0.93;0.78;;;;;;;24.62;37.14;100688.70;1708319;83;21013;-90
2021/06/05 10:39:16;;;;;;;0.98;0.55;;;;;;;24.59;36.71;100689.45;1709184;82;21006;-88
2021/06/05 10:41:52;;;;;;;0.33;0.30;;;;;;;24.54;37.39;100686.36;1707662;84;21085;-89
2021/06/05 10:44:19;;;;;;;0.78;0.40;;;;;;;24.52;38.13;100685.91;1707726;84;21068;-89
2021/06/05 10:47:12;;;;;;;0.40;0.40;;;;;;;24.46;38.58;100682.62;1678067;84;21134;-89
2021/06/05 10:50:02;;;;;;;0.47;0.45;;;;;;;24.55;39.50;100678.19;1708861;82;21032;-88
2021/06/05 10:53:12;;;;;;;0.33;0.33;;;;;;;24.70;38.70;100670.89;1716417;82;21404;-88
2021/06/05 10:55:46;;;;;;;1.70;0.82;;;;;;;24.72;38.04;100672.73;1706827;84;21024;-88
2021/06/05 10:58:21;;;;;;;2.80;0.90;;;;;;;24.69;37.00;100666.48;1707937;84;21017;-87
2021/06/05 11:01:06;;;;;;;0.72;0.60;;;;;;;24.78;36.99;100656.48;1707871;84;21539;-87
2021/06/05 11:03:44;;;;;;;0.78;0.53;;;;;;;24.81;39.67;100654.34;1730186;82;21028;-88
2021/06/05 11:06:29;;;;;;;0.78;0.50;;;;;;;24.99;38.10;100655.45;1737661;81;21523;-88
2021/06/05 11:09:00;;;;;;;0.55;0.53;;;;;;;25.20;35.82;100647.27;1693898;82;21064;-89
2021/06/05 11:11:42;;;;;;;0.30;0.30;;;;;;;25.46;36.96;100651.46;1709621;82;21022;-89
2021/06/05 11:14:14;;;;;;;0.20;0.20;;;;;;;25.61;35.79;100648.29;1713731;83;21002;-88
2021/06/05 11:17:05;;;;;;;;;;;;;;;25.49;37.17;100645.70;1716599;83;21005;-87
2021/06/05 11:19:53;;;;;;;0.50;0.50;;;;;;;25.59;38.17;100654.05;1714031;82;20616;-88
2021/06/05 11:22:26;;;;;;;0.98;0.70;;;;;;;25.85;36.14;100649.04;1678922;84;21025;-88
2021/06/05 11:25:10;;;;;;;0.20;0.20;;;;;;;26.07;35.62;100643.97;1715748;83;21491;-87
2021/06/05 11:27:44;;;;;;;0.30;0.30;;;;;;;26.24;34.27;100641.18;1705924;83;20989;-88
2021/06/05 11:30:26;;;;;;;1.07;0.78;;;;;;;26.38;33.97;100641.92;1706342;84;21033;-88
2021/06/05 11:32:58;;;;;;;4.10;0.85;;;;;;;26.64;34.38;100638.84;1713919;83;20993;-86
2021/06/05 11:35:54;;;;;;;1.05;0.33;;;;;;;27.01;33.62;100639.60;1713760;83;21454;-88
2021/06/05 11:38:26;;;;;;;0.60;0.55;;;;;;;27.33;32.81;100639.70;1597828;85;21070;-88
2021/06/05 11:41:06;;;;;;;0.20;0.20;;;;;;;27.71;32.22;100642.55;1713927;82;21048;-88
2021/06/05 11:43:45;;;;;;;0.65;0.57;;;;;;;28.03;32.00;100635.73;1727562;82;20994;-87
2021/06/05 11:46:24;;;;;;;2.37;0.80;;;;;;;28.09;31.37;100632.76;1736638;81;20992;-88